Independence, Ca., Owens Valley School Weather observations

 Day   Time    Ave.   Ave.  Ave.  Vector  Max.   Total    Solar  
  of    of     Air    Rel.  Wind   Wind   Wind  Precip.   Rad.   
Year   Day     Temp.  Hum.  Speed  Dir.   Gust                   
2015   (PST)    F      %     mph   deg.    mph    in.     W/m2  
----------------------------------------------------------------
  24   18:00   55.4    10    3.7   277     7.3    0.00       0
  24   18:10   54.7    10    0.7   303     5.7    0.00       0
  24   18:20   54.4    10    3.3   271     5.8    0.00       0
  24   18:30   54.9    10    2.9   270     6.0    0.00       0
  24   18:40   55.1    10    1.9   282     5.7    0.00       0
  24   18:50   54.6    10    0.8     4     4.6    0.00       0
  24   19:00   52.8    11    1.5    61     5.1    0.00       0
  24   19:10   51.9    12    0.2   267     3.8    0.00       0
  24   19:20   52.6    12    1.8    47     5.9    0.00       0
  24   19:30   51.3    12    0.3   318     4.9    0.00       0
  24   19:40   51.8    12    3.6   298     7.5    0.00       0
  24   19:50   52.8    12    4.1   294     7.1    0.00       0
  24   20:00   54.8    11    5.9   287    12.2    0.00       0
  24   20:10   55.2    11    6.1   273    11.3    0.00       0
  24   20:20   54.4    12    5.5   265    11.4    0.00       0
  24   20:30   53.5    13    4.7   264     7.6    0.00       0
  24   20:40   52.8    14    2.0   272     5.2    0.00       0
  24   20:50   52.0    15    0.5   282     4.5    0.00       0
  24   21:00   51.4    16    0.2   340     3.8    0.00       0
  24   21:10   50.3    17    1.0   166     4.6    0.00       0
  24   21:20   51.1    17    2.6   204     5.5    0.00       0
  24   21:30   53.6    15    3.2   290     8.2    0.00       0
  24   21:40   53.9    16    5.0   321    10.0    0.00       0
  24   21:50   52.8    17    3.8   317    10.3    0.00       0
  24   22:00   52.5    17    1.3   300     6.3    0.00       0
  24   22:10   52.3    17    4.5   305    10.5    0.00       0
  24   22:20   52.8    17    5.4   287     9.0    0.00       0
  24   22:30   52.7    17    5.4   278    10.5    0.00       0
  24   22:40   52.7    17    5.1   289    10.2    0.00       0
  24   22:50   52.7    17    7.9   307    18.3    0.00       0
  24   23:00   52.7    17    7.3   302    14.7    0.00       0
  24   23:10   51.9    17    7.3   294    15.8    0.00       0
  24   23:20   52.0    17    6.7   294    11.7    0.00       0
  24   23:30   51.7    16    7.5   315    14.3    0.00       0
  24   23:40   52.1    16    8.9   322    13.8    0.00       0
  24   23:50   50.8    18    6.8   324    11.9    0.00       0
  25    0:00   49.9    19    6.5   319    11.1    0.00       0
  25    0:10   49.6    19    5.4   319    10.9    0.00       0
  25    0:20   49.1    19    5.4   318    11.2    0.00       0
  25    0:30   48.3    20    5.7   306    11.4    0.00       0
  25    0:40   47.2    21    7.1   286    14.4    0.00       0
  25    0:50   47.1    20    6.6   293    11.5    0.00       0
  25    1:00   47.9    20    8.0   284    15.0    0.00       0
  25    1:10   48.6    19    7.8   289    14.6    0.00       0
  25    1:20   49.3    19    7.5   291    14.8    0.00       0
  25    1:30   50.1    18    6.9   298    11.5    0.00       0
  25    1:40   51.0    18    5.5   298    10.9    0.00       0
  25    1:50   51.5    18    8.1   312    18.0    0.00       0
  25    2:00   50.6    19    8.3   317    18.8    0.00       0
  25    2:10   50.1    18    6.5   324    14.8    0.00       0
  25    2:20   49.4    19    5.6   319    10.3    0.00       0
  25    2:30   48.2    20    6.6   321    11.9    0.00       0
  25    2:40   47.2    21    3.5   312     7.1    0.00       0
  25    2:50   47.1    22    3.4   312     9.8    0.00       0
  25    3:00   47.8    20    5.6   312    12.5    0.00       0
  25    3:10   48.8    20    6.5   315    12.4    0.00       0
  25    3:20   48.6    20    6.0   308    10.7    0.00       0
  25    3:30   46.9    22    6.5   303    11.7    0.00       0
  25    3:40   45.3    24    6.4   302    15.5    0.00       0
  25    3:50   44.6    24    5.2   288     8.6    0.00       0
  25    4:00   44.7    24    4.2   297     7.0    0.00       0
  25    4:10   45.0    24    5.0   305    10.3    0.00       0
  25    4:20   46.0    23    6.1   303    12.1    0.00       0
  25    4:30   46.4    23    6.8   294    15.5    0.00       0
  25    4:40   45.4    25    7.0   303    11.8    0.00       0
  25    4:50   44.1    27    6.0   308    13.7    0.00       0
  25    5:00   43.7    27    4.8   307     9.7    0.00       0
  25    5:10   44.7    26    5.9   317    11.7    0.00       0
  25    5:20   45.3    26    5.9   331     9.5    0.00       0
  25    5:30   46.1    25    8.0   321    14.3    0.00       0
  25    5:40   47.8    24    7.3   319    13.6    0.00       0
  25    5:50   46.9    25    4.9   341     8.6    0.00       0
  25    6:00   45.5    26    7.1   335    12.5    0.00       0
  25    6:10   45.2    27    6.6   332    10.3    0.00       0
  25    6:20   44.5    28    4.2   337     7.1    0.00       1
  25    6:30   43.7    29    4.1   330     7.1    0.00       2
  25    6:40   43.4    29    4.1   346     6.3    0.00       5
  25    6:50   42.3    31    6.0   335    10.8    0.00       7
  25    7:00   42.6    30    7.3   322    12.0    0.00      10
  25    7:10   42.5    30    6.7   332    10.7    0.00      65
  25    7:20   43.7    29    4.7   326     7.7    0.00     111
  25    7:30   45.2    28    2.0   341     5.5    0.00     140
  25    7:40   47.2    26    4.5   330     8.4    0.00     167
  25    7:50   49.4    24    6.6   336    11.4    0.00     194
  25    8:00   49.8    24    7.5   325    14.4    0.00     221
  25    8:10   50.6    23    7.8   309    14.5    0.00     248
  25    8:20   52.5    21    8.1   312    17.1    0.00     276
  25    8:30   54.3    20    6.7   316    13.0    0.00     302
  25    8:40   55.0    21    8.5   313    14.9    0.00     327
  25    8:50   56.0    20    7.6   312    13.7    0.00     352
  25    9:00   57.4    19    7.9   326    15.4    0.00     375
  25    9:10   57.8    19    8.8   332    17.8    0.00     397
  25    9:20   57.4    19    9.8   325    14.7    0.00     419
  25    9:30   58.3    18    7.5   319    14.9    0.00     438
  25    9:40   60.0    17    7.3   318    16.5    0.00     457
  25    9:50   60.4    16    8.2   323    13.6    0.00     475
  25   10:00   61.2    16    6.9   306    12.2    0.00     491
  25   10:10   62.2    15    6.8   310    11.2    0.00     506
  25   10:20   63.3    15    6.1   315    11.5    0.00     518
  25   10:30   64.4    14    7.0   328    11.6    0.00     530
  25   10:40   65.2    14    6.7   322    11.7    0.00     540
  25   10:50   66.3    14    5.7   331    11.9    0.00     548
  25   11:00   66.5    14    6.7   333    12.8    0.00     555
  25   11:10   66.8    14    6.9   322    10.7    0.00     561
  25   11:20   67.9    14    5.8   317    11.9    0.00     565
  25   11:30   68.6    13    6.2   314    11.4    0.00     567
  25   11:40   69.1    13    5.8   314    11.4    0.00     567
  25   11:50   70.1    13    3.6   292     7.9    0.00     567
  25   12:00   71.3    12    3.3   288     8.2    0.00     564
  25   12:10   71.2    13    5.3   311     9.9    0.00     559
  25   12:20   71.6    12    5.4   315     9.2    0.00     553
  25   12:30   71.8    12    4.1   276     7.7    0.00     545
  25   12:40   73.8    12    1.5   302     5.4    0.00     535
  25   12:50   74.3    12    2.8   279     6.7    0.00     525
  25   13:00   74.8    12    1.3   328     5.6    0.00     512
  25   13:10   75.8    12    1.1   284     4.2    0.00     499
  25   13:20   76.1    12    1.6   221     6.0    0.00     483
  25   13:30   75.8    12    2.3   297     5.4    0.00     467
  25   13:40   76.0    12    4.0   329     8.0    0.00     448
  25   13:50   76.2    11    1.3   320     5.4    0.00     429
  25   14:00   77.3    11    1.0    25     4.8    0.00     408
  25   14:10   78.1    11    0.8   313     3.5    0.00     387
  25   14:20   78.9    11    0.8   288     3.1    0.00     364
  25   14:30   77.8    11    1.1   286     3.5    0.00     340
  25   14:40   78.2    11    0.8    16     3.2    0.00     316
  25   14:50   78.5    11    1.2   240     5.3    0.00     289
  25   15:00   78.3    11    0.9   134     3.8    0.00     264
  25   15:10   77.9    11    2.2    98     5.2    0.00     237
  25   15:20   78.1    11    0.0   211     0.6    0.00     209
  25   15:30   78.9    11    0.0     0     0.0    0.00     183
  25   15:40   76.1    11    0.0   228     1.3    0.00      73
  25   15:50   75.3    12    0.0     0     0.0    0.00      16
  25   16:00   72.6    13    0.0   197     0.7    0.00      14
  25   16:10   70.0    14    1.1   206     3.8    0.00      12
  25   16:20   67.1    14    2.7   228     7.9    0.00      10
  25   16:30   66.3    15    3.7   228     7.2    0.00       8
  25   16:40   65.8    15    3.5   217     6.9    0.00       5
  25   16:50   65.0    16    3.3   215     7.9    0.00       3
  25   17:00   65.2    16    3.2   221     7.9    0.00       1
  25   17:10   64.1    16    2.3   211     6.5    0.00       0
  25   17:20   63.1    17    1.9   202     5.2    0.00       0
  25   17:30   62.2    17    2.4   197     5.3    0.00       0
  25   17:40   62.0    18    3.0   210     7.3    0.00       0
  25   17:50   62.2    18    0.3   284     2.5    0.00       0

Return to Independence, Ca. graphs page.


Western Regional Climate Center,wrcc@dri.edu